Time;durP1;ratioP1;P1;durP2;ratioP2;P2;SDS_P1;SDS_P2;PMS_P1;PMS_P2;Temp;Humidity;BMP_temperature;BMP_pressure;BME280_temperature;BME280_humidity;BME280_pressure;Samples;Min_cycle;Max_cycle;Signal;HPM_P1;HPM_P2
2022/12/01 00:01:20;;;;;;;49.20;19.90;;;;;;;19.29;57.42;100870.84;5062519;28;20647;-64
2022/12/01 00:03:45;;;;;;;48.10;18.70;;;;;;;19.30;57.43;100861.06;5059079;28;20484;-64
2022/12/01 00:06:12;;;;;;;48.93;21.00;;;;;;;19.25;57.66;100873.63;5074554;28;20998;-64
2022/12/01 00:08:37;;;;;;;51.17;20.27;;;;;;;19.23;57.63;100876.06;5071186;28;20178;-64
2022/12/01 00:11:04;;;;;;;43.73;17.23;;;;;;;19.24;57.69;100871.97;5090663;28;20401;-65
2022/12/01 00:13:30;;;;;;;49.33;20.03;;;;;;;19.26;57.27;100872.44;5090434;28;21160;-65
2022/12/01 00:15:55;;;;;;;41.33;18.63;;;;;;;19.27;57.09;100870.41;5082173;28;20445;-65
2022/12/01 00:18:20;;;;;;;38.47;17.60;;;;;;;19.15;56.46;100874.19;5080864;28;20179;-65
2022/12/01 00:20:49;;;;;;;40.80;16.27;;;;;;;18.83;50.88;100871.72;5081034;28;20209;-65
2022/12/01 00:23:15;;;;;;;24.23;14.43;;;;;;;18.66;49.14;100874.94;5048876;28;20661;-65
2022/12/01 00:25:40;;;;;;;32.00;14.47;;;;;;;18.42;47.38;100875.91;5077812;28;20455;-65
2022/12/01 00:28:06;;;;;;;25.20;13.20;;;;;;;18.40;46.12;100875.44;5066464;28;20564;-64
2022/12/01 00:30:31;;;;;;;23.70;13.50;;;;;;;18.26;47.11;100872.16;5050467;28;20452;-65
2022/12/01 00:32:56;;;;;;;23.40;11.93;;;;;;;18.16;48.32;100878.41;5053235;28;20172;-65
2022/12/01 00:35:22;;;;;;;27.03;13.27;;;;;;;18.40;46.78;100869.72;5073512;28;20193;-65
2022/12/01 00:37:47;;;;;;;19.53;11.50;;;;;;;18.67;46.81;100868.00;5072067;28;20186;-65
2022/12/01 00:40:13;;;;;;;25.77;11.83;;;;;;;18.79;46.18;100868.75;5045549;28;20265;-65
2022/12/01 00:42:38;;;;;;;21.70;11.70;;;;;;;18.88;46.99;100866.56;5065974;28;20252;-65
2022/12/01 00:45:04;;;;;;;23.00;11.50;;;;;;;19.06;47.08;100872.72;5071300;28;20193;-65
2022/12/01 00:47:30;;;;;;;20.77;11.93;;;;;;;19.17;46.91;100865.22;5068099;28;20199;-65
2022/12/01 00:49:55;;;;;;;17.77;9.60;;;;;;;19.17;47.27;100874.63;5067978;28;21112;-65
2022/12/01 00:52:21;;;;;;;23.07;11.00;;;;;;;19.29;47.18;100871.69;5063131;28;20641;-65
2022/12/01 00:54:46;;;;;;;21.20;10.60;;;;;;;19.21;52.03;100878.41;5047688;28;20196;-65
2022/12/01 00:57:12;;;;;;;16.73;9.90;;;;;;;19.24;49.76;100891.19;5053945;28;20183;-65
2022/12/01 00:59:38;;;;;;;25.30;8.70;;;;;;;19.24;49.13;100892.03;5061139;28;20261;-65
2022/12/01 01:02:04;;;;;;;26.23;9.63;;;;;;;19.20;49.44;100893.09;5054654;28;20756;-65
2022/12/01 01:04:30;;;;;;;25.63;11.17;;;;;;;19.20;49.56;100896.78;5051181;28;20206;-65
2022/12/01 01:06:56;;;;;;;29.53;9.23;;;;;;;19.10;50.26;100896.50;5038851;28;20440;-65
2022/12/01 01:09:21;;;;;;;25.97;9.87;;;;;;;19.05;50.52;100893.94;5058000;28;20532;-65
2022/12/01 01:11:47;;;;;;;20.70;8.83;;;;;;;19.08;51.02;100888.31;5056789;28;21027;-65
2022/12/01 01:14:13;;;;;;;31.10;10.37;;;;;;;19.13;50.78;100888.03;5070733;28;20195;-65
2022/12/01 01:16:39;;;;;;;18.70;9.10;;;;;;;19.16;50.97;100895.06;5052493;28;20238;-65
2022/12/01 01:19:04;;;;;;;15.57;9.03;;;;;;;19.20;50.92;100891.06;5056029;28;20477;-65
2022/12/01 01:21:30;;;;;;;20.17;8.17;;;;;;;19.18;51.17;100896.34;5040712;28;20195;-65
2022/12/01 01:23:55;;;;;;;16.77;8.40;;;;;;;19.18;51.33;100904.94;5042965;28;20183;-66
2022/12/01 01:26:29;;;;;;;19.10;9.10;;;;;;;19.18;51.38;100909.81;5076783;28;20171;-65
2022/12/01 01:29:00;;;;;;;13.30;7.50;;;;;;;19.17;51.62;100905.28;5076731;28;20182;-65
2022/12/01 01:31:27;;;;;;;15.80;8.70;;;;;;;19.18;51.75;100892.63;5057241;28;20436;-65
2022/12/01 01:33:53;;;;;;;14.33;8.23;;;;;;;19.19;51.89;100900.03;5075005;28;20490;-65
2022/12/01 01:36:19;;;;;;;18.77;7.87;;;;;;;19.15;52.10;100904.81;5054339;28;20433;-65
2022/12/01 01:38:44;;;;;;;20.60;8.03;;;;;;;19.12;52.26;100906.38;5055614;28;20479;-65
2022/12/01 01:41:10;;;;;;;16.80;7.87;;;;;;;19.13;52.36;100907.22;5037725;28;20266;-65
2022/12/01 01:43:39;;;;;;;13.00;6.63;;;;;;;19.06;52.68;100907.06;5040124;28;20194;-65
2022/12/01 01:46:04;;;;;;;12.37;6.43;;;;;;;19.09;52.50;100914.91;5075832;28;20657;-65
2022/12/01 01:48:30;;;;;;;12.87;7.43;;;;;;;19.08;52.83;100914.06;5072254;28;20437;-65
2022/12/01 01:50:55;;;;;;;16.40;8.30;;;;;;;19.09;52.89;100918.59;5075555;28;20196;-65
2022/12/01 01:53:21;;;;;;;13.43;7.43;;;;;;;19.05;53.02;100913.97;5072481;28;20236;-65
2022/12/01 01:55:46;;;;;;;16.60;7.30;;;;;;;19.06;52.93;100916.47;5057922;28;20224;-65
2022/12/01 01:58:12;;;;;;;14.87;8.13;;;;;;;19.03;53.36;100917.22;5055497;28;20638;-65
2022/12/01 02:00:38;;;;;;;14.23;7.00;;;;;;;19.04;53.21;100910.28;5057889;28;20199;-65
2022/12/01 02:03:03;;;;;;;18.53;7.93;;;;;;;19.06;53.23;100922.19;5070745;28;20241;-65
2022/12/01 02:05:31;;;;;;;13.70;7.90;;;;;;;19.05;53.54;100911.94;5073481;28;21320;-65
2022/12/01 02:07:56;;;;;;;13.03;7.33;;;;;;;19.03;53.50;100902.91;5038827;28;20183;-65
2022/12/01 02:10:40;;;;;;;14.00;7.10;;;;;;;19.03;53.71;100905.78;5021303;28;20445;-65
2022/12/01 02:13:38;;;;;;;13.23;6.50;;;;;;;19.02;53.54;100895.50;5058240;28;20183;-65
2022/12/01 02:16:17;;;;;;;14.43;7.00;;;;;;;19.03;53.49;100879.16;5040183;28;20921;-65
2022/12/01 02:19:15;;;;;;;14.33;7.33;;;;;;;19.00;53.97;100880.75;5055332;28;20436;-65
2022/12/01 02:22:02;;;;;;;12.30;6.97;;;;;;;18.99;53.96;100887.69;5032506;28;20449;-65
2022/12/01 02:25:15;;;;;;;13.33;7.40;;;;;;;19.02;54.08;100894.69;5039056;28;20407;-65
2022/12/01 02:27:46;;;;;;;11.73;7.00;;;;;;;18.97;54.34;100887.19;4966317;28;20437;-65
2022/12/01 02:30:13;;;;;;;13.50;6.70;;;;;;;19.00;54.26;100888.47;5047624;28;20434;-65
2022/12/01 02:33:08;;;;;;;12.20;6.50;;;;;;;18.99;54.63;100884.81;5038439;28;20443;-65
2022/12/01 02:35:36;;;;;;;14.43;7.17;;;;;;;18.98;54.61;100886.03;5052089;28;20467;-66
2022/12/01 02:38:11;;;;;;;11.63;6.30;;;;;;;18.99;54.27;100879.09;5043176;28;20464;-65
2022/12/01 02:40:39;;;;;;;11.30;6.30;;;;;;;19.02;54.60;100877.53;5038565;28;20464;-65
2022/12/01 02:43:09;;;;;;;13.73;7.37;;;;;;;19.00;54.68;100875.03;5038726;28;20492;-65
2022/12/01 02:45:57;;;;;;;9.80;6.17;;;;;;;19.00;54.61;100877.88;5020196;28;20403;-65
2022/12/01 02:48:27;;;;;;;11.23;6.97;;;;;;;19.01;54.80;100881.59;5029151;28;20433;-65
2022/12/01 02:50:54;;;;;;;14.37;6.10;;;;;;;18.99;54.65;100876.22;5056468;28;20432;-65
2022/12/01 02:53:19;;;;;;;12.70;6.83;;;;;;;18.99;54.66;100881.94;5054819;28;20401;-65
2022/12/01 02:55:54;;;;;;;13.93;7.30;;;;;;;18.97;54.75;100881.47;5013199;28;20474;-66
2022/12/01 02:58:20;;;;;;;11.33;6.33;;;;;;;18.95;54.85;100885.91;5035033;28;20164;-65
2022/12/01 03:01:05;;;;;;;16.60;6.40;;;;;;;18.97;54.83;100881.47;5035274;28;20455;-65
2022/12/01 03:04:02;;;;;;;11.73;6.57;;;;;;;18.95;54.98;100883.03;5028604;28;20510;-65
2022/12/01 03:06:45;;;;;;;11.03;5.93;;;;;;;18.98;54.84;100883.16;5022237;28;20520;-65
2022/12/01 03:09:40;;;;;;;11.90;5.97;;;;;;;18.97;55.05;100881.47;5018305;28;20438;-65
2022/12/01 03:12:20;;;;;;;11.60;6.53;;;;;;;18.93;55.01;100879.72;5055028;28;20398;-65
2022/12/01 03:15:08;;;;;;;10.53;6.80;;;;;;;18.95;55.27;100883.88;5017826;28;20780;-66
2022/12/01 03:17:52;;;;;;;10.43;5.90;;;;;;;18.96;55.34;100887.59;5004223;28;20514;-65
2022/12/01 03:20:34;;;;;;;10.57;5.87;;;;;;;18.92;55.23;100878.88;5039069;28;20690;-65
2022/12/01 03:23:10;;;;;;;14.53;6.27;;;;;;;18.92;55.32;100867.44;5020559;28;20461;-65
2022/12/01 03:25:37;;;;;;;10.97;6.13;;;;;;;18.91;55.25;100871.50;5034665;28;20422;-65
2022/12/01 03:28:04;;;;;;;12.27;5.80;;;;;;;18.91;55.35;100876.44;5033910;28;20430;-65
2022/12/01 03:30:31;;;;;;;11.37;6.07;;;;;;;18.93;55.20;100868.28;5036570;28;20424;-65
2022/12/01 03:33:03;;;;;;;13.50;6.90;;;;;;;18.92;55.47;100864.59;5048505;28;20462;-65
2022/12/01 03:35:45;;;;;;;10.87;6.60;;;;;;;18.93;55.51;100872.00;5021127;28;20501;-65
2022/12/01 03:38:16;;;;;;;12.73;6.30;;;;;;;18.91;55.35;100870.69;5030460;28;20439;-65
2022/12/01 03:40:42;;;;;;;10.83;6.10;;;;;;;18.90;55.45;100864.13;5001135;28;20549;-65
2022/12/01 03:43:09;;;;;;;9.53;5.50;;;;;;;18.88;55.61;100872.28;5053324;28;20460;-66
2022/12/01 03:46:00;;;;;;;12.50;7.50;;;;;;;18.90;55.64;100877.59;5033667;28;20175;-65
2022/12/01 03:48:25;;;;;;;14.43;5.93;;;;;;;18.87;55.68;100872.63;5053992;28;20492;-65
2022/12/01 03:51:13;;;;;;;10.30;6.00;;;;;;;18.85;55.88;100875.84;5051634;28;21048;-65
2022/12/01 03:53:51;;;;;;;12.10;6.00;;;;;;;18.87;55.74;100876.31;5037631;28;20824;-65
2022/12/01 03:56:19;;;;;;;8.37;5.53;;;;;;;18.88;55.59;100872.28;5034446;28;20486;-65
2022/12/01 03:58:44;;;;;;;16.23;6.17;;;;;;;18.85;55.69;100877.88;5035802;28;20423;-65
2022/12/01 04:01:10;;;;;;;12.80;5.90;;;;;;;18.91;55.60;100882.97;5018788;28;20455;-65
2022/12/01 04:03:35;;;;;;;8.30;5.17;;;;;;;18.89;55.74;100875.94;5016685;28;20661;-65
2022/12/01 04:06:01;;;;;;;10.70;6.13;;;;;;;18.90;55.67;100874.75;5053709;28;20195;-65
2022/12/01 04:08:26;;;;;;;13.50;5.83;;;;;;;18.87;55.87;100884.88;5044635;28;20191;-65
2022/12/01 04:10:56;;;;;;;7.80;5.90;;;;;;;18.90;55.64;100881.31;5033952;28;20165;-66
2022/12/01 04:13:22;;;;;;;11.47;5.90;;;;;;;18.90;55.80;100889.88;5033718;28;20649;-65
2022/12/01 04:15:51;;;;;;;8.77;5.53;;;;;;;18.89;55.87;100891.09;5036009;28;20431;-65
2022/12/01 04:18:17;;;;;;;10.97;5.87;;;;;;;18.88;55.85;100889.44;5015748;28;20483;-65
2022/12/01 04:20:47;;;;;;;10.10;6.27;;;;;;;18.91;55.74;100893.59;5025005;28;20450;-65
2022/12/01 04:23:58;;;;;;;9.37;5.37;;;;;;;18.89;55.77;100893.09;5050778;28;20179;-65
2022/12/01 04:25:59;;;;;;;9.57;6.30;;;;;;;18.87;55.78;100887.75;5038642;28;20461;-65
2022/12/01 04:28:25;;;;;;;10.10;6.07;;;;;;;18.87;55.69;100882.03;5034921;28;20928;-65
2022/12/01 04:30:50;;;;;;;11.03;5.50;;;;;;;18.87;56.05;100886.94;5053398;28;20446;-65
2022/12/01 04:33:16;;;;;;;8.60;5.20;;;;;;;18.87;56.03;100892.66;5050500;28;20182;-65
2022/12/01 04:35:41;;;;;;;10.47;5.47;;;;;;;18.90;55.85;100900.50;5053480;28;20160;-65
2022/12/01 04:38:06;;;;;;;8.70;5.47;;;;;;;18.89;56.02;100890.25;5051605;28;20550;-65
2022/12/01 04:40:32;;;;;;;9.30;5.40;;;;;;;18.87;56.03;100893.47;5053648;28;20686;-65
2022/12/01 04:42:57;;;;;;;8.27;5.23;;;;;;;18.85;56.06;100889.31;5035837;28;20164;-65
2022/12/01 04:45:23;;;;;;;15.30;5.67;;;;;;;18.84;56.11;100891.38;5037471;28;20640;-65
2022/12/01 04:47:51;;;;;;;11.60;5.40;;;;;;;18.88;56.02;100891.44;5015746;28;20187;-65
2022/12/01 04:50:17;;;;;;;7.40;5.30;;;;;;;18.88;56.28;100892.31;5023773;28;20182;-65
2022/12/01 04:52:42;;;;;;;9.07;5.27;;;;;;;18.88;56.25;100895.16;5035178;28;20418;-65
2022/12/01 04:55:08;;;;;;;8.37;5.20;;;;;;;18.88;55.94;100895.16;5057242;28;20222;-65
2022/12/01 04:57:33;;;;;;;8.83;4.60;;;;;;;18.90;55.94;100889.88;5073125;28;20167;-66
2022/12/01 04:59:59;;;;;;;9.63;5.90;;;;;;;18.89;56.13;100895.97;5069509;28;20202;-65
2022/12/01 05:02:24;;;;;;;9.47;5.57;;;;;;;18.90;56.20;100892.75;5073214;28;20175;-65
2022/12/01 05:04:50;;;;;;;9.63;5.33;;;;;;;18.90;55.89;100891.91;5068759;28;20198;-65
2022/12/01 05:07:16;;;;;;;10.07;4.90;;;;;;;18.90;56.09;100898.47;5034539;28;20233;-65
2022/12/01 05:09:42;;;;;;;7.13;4.97;;;;;;;18.91;56.23;100905.84;5052511;28;20202;-65
2022/12/01 05:12:07;;;;;;;7.50;4.63;;;;;;;18.93;55.93;100908.34;5052396;28;20398;-65
2022/12/01 05:14:33;;;;;;;10.07;5.70;;;;;;;18.89;56.17;100916.84;5036655;28;20195;-65
2022/12/01 05:16:59;;;;;;;9.20;4.97;;;;;;;18.90;56.05;100906.22;5052168;28;20160;-65
2022/12/01 05:22:09;;;;;;;7.57;4.93;;;;;;;18.86;56.27;100908.97;5053278;28;20397;-65
2022/12/01 05:24:34;;;;;;;7.73;4.90;;;;;;;18.90;56.03;100909.91;5061821;28;20437;-65
2022/12/01 05:26:59;;;;;;;9.43;5.13;;;;;;;18.87;56.17;100910.63;5071771;28;20186;-65
2022/12/01 05:29:25;;;;;;;7.97;5.17;;;;;;;18.90;56.04;100914.78;5073082;28;20174;-65
2022/12/01 05:31:50;;;;;;;8.50;5.47;;;;;;;18.84;56.44;100905.66;5072819;28;20544;-65
2022/12/01 05:34:16;;;;;;;8.27;4.97;;;;;;;18.91;56.03;100916.47;5070110;28;20658;-65
2022/12/01 05:36:41;;;;;;;6.60;4.60;;;;;;;18.89;56.16;100907.41;5054967;28;20163;-65
2022/12/01 05:39:07;;;;;;;8.90;4.80;;;;;;;18.88;56.12;100912.31;5041556;28;20195;-65
2022/12/01 05:41:32;;;;;;;7.43;4.60;;;;;;;18.90;56.20;100914.78;5055839;28;20168;-65
2022/12/01 05:43:58;;;;;;;6.73;5.10;;;;;;;18.88;56.15;100912.31;5056517;28;20168;-65
2022/12/01 05:46:23;;;;;;;9.33;6.20;;;;;;;18.89;56.24;100913.13;5056517;28;20198;-65
2022/12/01 05:48:48;;;;;;;9.20;5.53;;;;;;;18.85;56.27;100907.31;5058652;28;20175;-65
2022/12/01 05:51:15;;;;;;;10.63;5.60;;;;;;;18.93;56.26;100916.94;5069653;28;20195;-65
2022/12/01 05:53:40;;;;;;;10.10;5.17;;;;;;;18.89;56.06;100913.13;5021723;28;20160;-65
2022/12/01 05:56:06;;;;;;;7.67;4.77;;;;;;;18.90;56.31;100914.78;5005282;28;20497;-65
2022/12/01 05:58:31;;;;;;;8.70;5.03;;;;;;;18.86;56.17;100914.69;5053299;28;20202;-65
2022/12/01 06:00:57;;;;;;;9.73;5.57;;;;;;;18.90;56.43;100914.78;5065215;28;20242;-65
2022/12/01 06:03:22;;;;;;;8.37;5.00;;;;;;;18.90;56.20;100915.63;5045684;28;20171;-65
2022/12/01 06:05:48;;;;;;;7.47;5.23;;;;;;;18.91;56.25;100920.16;5072663;28;20204;-65
2022/12/01 06:08:14;;;;;;;8.60;5.10;;;;;;;18.88;56.38;100920.91;5063221;28;20179;-65
2022/12/01 06:10:39;;;;;;;7.03;5.23;;;;;;;18.93;56.34;100922.66;5075759;28;20697;-65
2022/12/01 06:13:05;;;;;;;9.50;5.60;;;;;;;18.87;56.23;100924.94;5062570;28;20207;-65
2022/12/01 06:15:30;;;;;;;7.10;4.67;;;;;;;18.94;56.27;100925.16;5021536;28;20555;-66
2022/12/01 06:17:58;;;;;;;8.67;5.30;;;;;;;18.89;56.34;100925.44;5074438;28;20538;-66
2022/12/01 06:20:23;;;;;;;6.67;4.87;;;;;;;18.92;56.41;100918.13;5040412;28;20207;-66
2022/12/01 06:22:49;;;;;;;7.60;5.00;;;;;;;18.91;56.36;100925.06;5069197;28;20425;-65
2022/12/01 06:25:14;;;;;;;7.60;5.30;;;;;;;18.92;56.41;100918.94;5075727;28;20178;-65
2022/12/01 06:27:40;;;;;;;6.90;4.60;;;;;;;18.91;56.42;100923.00;5065687;28;20765;-65
2022/12/01 06:30:06;;;;;;;8.53;5.00;;;;;;;18.92;56.44;100924.66;5055324;28;20190;-65
2022/12/01 06:32:31;;;;;;;7.50;5.03;;;;;;;18.90;56.56;100931.97;5040781;28;20260;-65
2022/12/01 06:34:57;;;;;;;8.07;4.97;;;;;;;18.91;56.29;100931.59;5073419;28;20425;-65
2022/12/01 06:37:22;;;;;;;8.00;5.20;;;;;;;18.92;56.48;100936.13;5074229;28;20178;-65
2022/12/01 06:39:47;;;;;;;8.93;5.00;;;;;;;18.91;56.37;100934.47;5061860;28;20210;-66
2022/12/01 06:42:13;;;;;;;7.50;5.40;;;;;;;18.91;56.54;100940.19;5069568;28;20179;-65
2022/12/01 06:44:38;;;;;;;8.03;4.60;;;;;;;18.92;56.44;100941.03;5074753;28;20175;-66
2022/12/01 06:47:04;;;;;;;6.77;4.27;;;;;;;18.91;56.40;100943.03;5052005;28;20588;-66
2022/12/01 06:49:29;;;;;;;5.60;3.80;;;;;;;18.91;56.49;100945.09;5072728;28;20179;-66
2022/12/01 06:51:55;;;;;;;7.30;5.43;;;;;;;18.93;56.52;100952.09;5069974;28;20179;-66
2022/12/01 06:54:20;;;;;;;7.97;4.70;;;;;;;18.91;56.61;100950.81;5053081;28;20196;-67
2022/12/01 06:56:49;;;;;;;8.43;4.90;;;;;;;18.90;56.49;100949.97;5073285;28;20237;-66
2022/12/01 06:59:14;;;;;;;7.07;4.50;;;;;;;18.93;56.58;100954.97;5056838;28;20300;-65
2022/12/01 07:01:40;;;;;;;10.30;4.97;;;;;;;18.91;56.54;100956.53;5073844;28;20421;-65
2022/12/01 07:04:05;;;;;;;6.83;4.33;;;;;;;18.92;56.59;100955.31;5058124;28;20191;-65
2022/12/01 07:06:30;;;;;;;10.90;5.60;;;;;;;18.92;56.48;100959.00;5073578;28;20240;-65
2022/12/01 07:08:56;;;;;;;6.50;4.90;;;;;;;18.91;56.45;100956.53;5074489;28;20170;-65
2022/12/01 07:11:21;;;;;;;6.90;5.00;;;;;;;18.93;56.61;100959.84;5074752;28;20691;-65
2022/12/01 07:13:49;;;;;;;9.40;6.30;;;;;;;18.52;51.70;100966.88;5055034;28;20218;-66
2022/12/01 07:16:14;;;;;;;18.03;12.30;;;;;;;17.63;48.39;100966.53;5063222;28;20207;-64
2022/12/01 07:18:40;;;;;;;23.20;14.30;;;;;;;17.55;48.30;100964.66;5069557;28;20465;-65
2022/12/01 07:21:07;;;;;;;26.60;16.67;;;;;;;17.95;48.50;100965.50;5080221;28;20245;-65
2022/12/01 07:23:32;;;;;;;27.67;17.53;;;;;;;18.51;47.08;100967.25;5065522;28;20211;-65
2022/12/01 07:26:04;;;;;;;26.27;16.73;;;;;;;18.69;45.16;100971.44;5081636;28;20800;-66
2022/12/01 07:28:30;;;;;;;25.37;15.10;;;;;;;18.87;45.97;100972.78;5060267;28;20182;-65
2022/12/01 07:31:03;;;;;;;21.77;12.90;;;;;;;18.93;46.89;100968.44;5070247;28;20437;-65
2022/12/01 07:33:28;;;;;;;20.27;13.03;;;;;;;19.21;46.82;100978.59;5045585;28;20188;-65
2022/12/01 07:35:53;;;;;;;18.10;11.70;;;;;;;19.29;46.60;100974.75;5063788;28;20503;-65
2022/12/01 07:38:19;;;;;;;15.50;10.37;;;;;;;19.44;46.87;100976.78;5075050;28;20639;-66
2022/12/01 07:40:44;;;;;;;16.27;10.80;;;;;;;19.43;47.01;100989.44;5064947;28;20650;-65
2022/12/01 07:43:10;;;;;;;19.63;12.30;;;;;;;19.60;47.77;100986.19;5079645;28;20166;-66
2022/12/01 07:45:35;;;;;;;18.03;11.53;;;;;;;19.65;48.58;100980.19;5079483;28;20186;-66
2022/12/01 07:48:00;;;;;;;16.93;11.20;;;;;;;19.63;48.04;100990.34;5077475;28;20198;-66
2022/12/01 07:50:26;;;;;;;21.70;11.50;;;;;;;19.47;48.38;100987.47;5073405;28;20182;-65
2022/12/01 07:52:51;;;;;;;16.13;10.10;;;;;;;19.36;48.71;100989.25;5035105;28;20187;-65
2022/12/01 07:55:17;;;;;;;18.67;11.87;;;;;;;19.29;49.17;100988.22;5054543;28;20223;-65
2022/12/01 07:57:42;;;;;;;15.60;9.60;;;;;;;19.20;49.57;100987.53;5045489;28;20167;-65
2022/12/01 08:00:10;;;;;;;15.33;9.43;;;;;;;19.24;50.42;100995.09;5073149;28;20213;-65
2022/12/01 08:02:35;;;;;;;14.73;9.30;;;;;;;19.25;50.79;100993.03;5076003;28;20244;-66
2022/12/01 08:05:01;;;;;;;16.83;10.33;;;;;;;19.17;51.43;100989.13;5056313;28;20465;-65
2022/12/01 08:07:26;;;;;;;12.93;9.00;;;;;;;19.16;51.53;100992.38;5074911;28;20206;-66
2022/12/01 08:09:52;;;;;;;15.83;10.20;;;;;;;19.16;51.38;100993.19;5082949;28;20171;-66
2022/12/01 08:12:17;;;;;;;13.17;8.90;;;;;;;19.18;51.21;100990.81;5068692;28;20231;-66
2022/12/01 08:14:42;;;;;;;14.80;10.00;;;;;;;19.14;50.95;100991.88;5056342;28;20175;-65
2022/12/01 08:17:08;;;;;;;13.10;8.27;;;;;;;19.09;51.30;100992.16;5074287;28;20167;-66
2022/12/01 08:19:33;;;;;;;13.17;8.80;;;;;;;18.97;50.49;100993.06;5062180;28;20253;-65
2022/12/01 08:21:59;;;;;;;13.90;9.07;;;;;;;18.98;49.94;100991.91;5086942;28;20175;-65
2022/12/01 08:24:24;;;;;;;14.10;8.87;;;;;;;18.97;50.40;100995.94;5075525;28;20182;-65
2022/12/01 08:26:50;;;;;;;11.83;8.20;;;;;;;18.94;50.43;100995.84;5075063;28;20657;-65
2022/12/01 08:29:15;;;;;;;13.00;9.10;;;;;;;18.92;50.38;100995.38;5076600;28;20636;-65
2022/12/01 08:31:41;;;;;;;12.40;8.67;;;;;;;18.87;50.31;100998.53;5074194;28;20646;-65
2022/12/01 08:34:06;;;;;;;13.87;8.30;;;;;;;18.86;50.52;101003.41;5065586;28;20265;-65
2022/12/01 08:36:32;;;;;;;11.47;8.23;;;;;;;18.81;50.40;101005.72;5038726;28;20156;-65
2022/12/01 08:38:58;;;;;;;14.40;8.13;;;;;;;18.82;50.23;101005.31;5074488;28;20189;-65
2022/12/01 08:41:23;;;;;;;12.47;8.40;;;;;;;18.79;50.59;101006.06;5058598;28;20453;-65
2022/12/01 08:43:49;;;;;;;13.57;8.30;;;;;;;18.80;50.95;101013.44;5060194;28;20210;-65
2022/12/01 08:46:14;;;;;;;14.47;9.27;;;;;;;18.84;50.94;101010.69;5095103;28;20185;-66
2022/12/01 08:48:40;;;;;;;13.17;8.13;;;;;;;18.86;51.18;101000.53;5086430;28;20205;-65
2022/12/01 08:51:16;;;;;;;15.80;7.40;;;;;;;18.96;50.87;101011.44;5075337;28;20199;-65
2022/12/01 08:53:44;;;;;;;15.03;8.30;;;;;;;19.06;50.86;101015.81;5067277;28;20618;-65
2022/12/01 08:56:12;;;;;;;15.37;7.40;;;;;;;19.07;50.98;101021.16;5073706;28;20465;-66
2022/12/01 08:58:37;;;;;;;13.13;7.77;;;;;;;19.03;51.25;101023.09;5071158;28;20425;-65
2022/12/01 09:01:06;;;;;;;16.60;7.80;;;;;;;19.01;51.23;101019.75;5059978;28;20464;-65
2022/12/01 09:03:32;;;;;;;12.67;7.07;;;;;;;19.03;51.58;101027.97;5041458;28;20191;-66
2022/12/01 09:06:02;;;;;;;11.00;7.00;;;;;;;19.02;51.83;101027.13;5071713;28;20918;-66
2022/12/01 09:08:31;;;;;;;11.10;7.60;;;;;;;19.02;51.88;101035.72;5037957;28;20391;-65
2022/12/01 09:10:57;;;;;;;12.37;7.80;;;;;;;19.01;51.97;101025.47;5055441;28;20459;-66
2022/12/01 09:13:22;;;;;;;10.10;6.30;;;;;;;19.04;52.07;101030.47;5048878;28;20425;-65
2022/12/01 09:15:58;;;;;;;11.97;7.00;;;;;;;19.03;52.34;101025.97;5054671;28;20491;-65
2022/12/01 09:18:24;;;;;;;12.63;7.50;;;;;;;19.04;52.22;101036.22;5071152;28;20205;-66
2022/12/01 09:20:49;;;;;;;9.37;6.70;;;;;;;19.04;52.35;101033.34;5069790;28;20903;-65
2022/12/01 09:23:15;;;;;;;10.13;7.13;;;;;;;19.05;52.53;101032.13;5067724;28;20195;-66
2022/12/01 09:25:40;;;;;;;11.27;6.23;;;;;;;19.11;52.30;101029.84;5059416;28;20202;-66
2022/12/01 09:28:06;;;;;;;11.33;6.67;;;;;;;19.02;52.56;101030.00;5057809;28;20175;-66
2022/12/01 09:30:33;;;;;;;11.50;6.97;;;;;;;19.04;52.75;101032.50;5078083;28;20170;-66
2022/12/01 09:32:59;;;;;;;10.33;6.77;;;;;;;19.06;52.83;101030.94;5068036;28;20262;-66
2022/12/01 09:35:25;;;;;;;15.33;7.17;;;;;;;19.05;52.88;101029.28;5070556;28;20503;-66
2022/12/01 09:37:50;;;;;;;10.00;6.23;;;;;;;19.08;52.85;101027.72;5060501;28;20430;-66
2022/12/01 09:40:16;;;;;;;8.83;6.53;;;;;;;19.06;52.97;101033.78;5059294;28;20199;-66
2022/12/01 09:42:42;;;;;;;10.37;6.37;;;;;;;19.05;53.20;101019.84;5061215;28;20253;-66
2022/12/01 09:45:10;;;;;;;9.50;6.80;;;;;;;19.08;52.83;101030.56;5062871;28;20191;-66
2022/12/01 09:47:36;;;;;;;10.63;6.47;;;;;;;19.06;53.12;101030.94;5059733;28;20179;-66
2022/12/01 09:50:10;;;;;;;11.70;7.13;;;;;;;19.08;53.13;101024.84;5079469;28;20570;-66
2022/12/01 09:52:56;;;;;;;12.40;7.03;;;;;;;19.05;53.32;101019.84;5052361;28;20180;-66
2022/12/01 09:55:23;;;;;;;11.17;6.23;;;;;;;19.06;53.76;101028.06;5054881;28;20469;-66
2022/12/01 09:57:52;;;;;;;8.80;5.93;;;;;;;19.05;53.51;101026.41;5028396;28;20498;-66
2022/12/01 10:00:23;;;;;;;10.20;6.80;;;;;;;19.02;53.63;101027.13;5017170;28;20568;-67
2022/12/01 10:02:53;;;;;;;9.60;6.07;;;;;;;18.99;54.03;101022.16;5013237;28;20415;-67
2022/12/01 10:05:20;;;;;;;9.53;6.27;;;;;;;19.05;54.06;101019.84;5053354;28;20454;-66
2022/12/01 10:07:58;;;;;;;9.43;6.03;;;;;;;19.06;53.66;101018.69;5032069;28;20437;-67
2022/12/01 10:10:33;;;;;;;10.50;6.83;;;;;;;19.03;53.72;101022.25;5028325;28;20418;-66
2022/12/01 10:12:59;;;;;;;10.97;5.90;;;;;;;19.09;53.60;101015.06;5040176;28;20482;-66
2022/12/01 10:16:00;;;;;;;11.43;7.13;;;;;;;19.03;53.84;101017.38;5045103;28;20434;-66
2022/12/01 10:18:35;;;;;;;8.63;6.03;;;;;;;19.01;54.06;101013.22;4994202;28;20188;-66
2022/12/01 10:21:26;;;;;;;7.90;5.93;;;;;;;19.06;53.79;101010.91;5041277;28;20504;-66
2022/12/01 10:24:13;;;;;;;10.33;6.30;;;;;;;19.06;53.88;101004.38;5036575;28;20774;-66
2022/12/01 10:26:56;;;;;;;9.07;6.57;;;;;;;19.03;54.01;101005.09;5041540;28;20493;-67
2022/12/01 10:29:50;;;;;;;8.37;6.10;;;;;;;19.03;54.13;101005.09;5021399;28;20490;-66
2022/12/01 10:32:53;;;;;;;8.53;6.17;;;;;;;19.06;54.08;101001.50;5023341;28;20413;-66
2022/12/01 10:35:20;;;;;;;9.40;6.10;;;;;;;19.07;54.05;100994.56;5044280;28;20423;-66
2022/12/01 10:37:52;;;;;;;9.60;5.87;;;;;;;19.04;54.00;100993.28;5039886;28;20498;-66
2022/12/01 10:40:18;;;;;;;8.27;5.60;;;;;;;19.11;54.19;100984.88;5037541;28;20493;-66
2022/12/01 10:43:05;;;;;;;7.43;5.50;;;;;;;19.01;54.35;100982.56;5040582;28;20941;-66
2022/12/01 10:45:33;;;;;;;9.77;6.10;;;;;;;19.06;54.46;100990.06;5042922;28;20673;-67
2022/12/01 10:48:14;;;;;;;9.73;5.83;;;;;;;19.04;54.57;100990.41;5026400;28;20887;-67
2022/12/01 10:50:40;;;;;;;8.47;6.10;;;;;;;19.07;54.29;100983.94;5057217;28;20429;-66
2022/12/01 10:53:08;;;;;;;13.50;6.90;;;;;;;19.05;54.67;100979.78;5054958;28;20433;-66
2022/12/01 10:55:35;;;;;;;7.97;5.63;;;;;;;19.09;54.42;100980.72;5026199;28;20468;-66
2022/12/01 10:58:04;;;;;;;12.17;6.77;;;;;;;19.07;54.23;100971.69;5026703;28;20453;-67
2022/12/01 11:00:36;;;;;;;8.70;6.20;;;;;;;19.04;54.66;100976.09;5059887;28;20472;-66
2022/12/01 11:03:02;;;;;;;9.57;6.13;;;;;;;19.03;54.20;100977.31;5055905;28;20858;-66
2022/12/01 11:05:38;;;;;;;8.20;5.20;;;;;;;19.06;54.54;100981.47;5057351;28;20437;-66
2022/12/01 11:08:03;;;;;;;8.03;5.20;;;;;;;19.05;54.60;100974.06;5056109;28;20183;-66
2022/12/01 11:10:30;;;;;;;8.53;5.20;;;;;;;19.04;54.58;100961.81;5064891;28;20530;-66
2022/12/01 11:13:27;;;;;;;7.03;5.50;;;;;;;19.05;54.64;100971.19;5030297;28;20191;-66
2022/12/01 11:15:54;;;;;;;9.93;7.27;;;;;;;19.03;54.81;100963.00;5073140;28;20437;-66
2022/12/01 11:18:21;;;;;;;9.17;5.90;;;;;;;19.05;54.81;100962.63;5048662;28;20893;-66
2022/12/01 11:20:47;;;;;;;8.57;5.63;;;;;;;19.06;54.39;100956.53;5043599;28;20474;-66
2022/12/01 11:23:23;;;;;;;8.90;6.70;;;;;;;19.07;54.82;100958.19;5073362;28;20440;-66
2022/12/01 11:26:19;;;;;;;8.33;6.30;;;;;;;19.05;54.78;100957.72;5062570;28;20248;-66
2022/12/01 11:29:22;;;;;;;8.93;5.80;;;;;;;19.04;55.05;100953.22;5039022;28;20464;-66
2022/12/01 11:31:48;;;;;;;10.37;5.67;;;;;;;19.02;54.92;100952.72;5058151;28;20425;-67